Danville, Louisiana
Current Conditions -  °F | °C
As of 6:15 AM on Sunday 21 Dec 2014 (Local Time) from KRSN Reporting Station
Haze Haze  
Wind Chill: 32°   Ceiling: 500
Heat Index: 32°   Visibility: 0.75mi
Dew Point: 32°   Wind: 0mph
Humidity: 100%   Direction: NA
Pressure: 30.19"   Gusts: NA
Location:  32.3029°N, 92.924°W
Report Text: KRSN 211215Z AUTO 00000KT 3/4SM BR VV005 00/00 A3019 RMK AO2 VIS 1/4V3 T00000000
Loading
Personal Weather Stations






























Interactive Weather Map New forecast layout! Learn more

10-Day Weather Forecast

Advertisements
Track Severe Weather on mobile